Time;durP1;ratioP1;P1;durP2;ratioP2;P2;SDS_P1;SDS_P2;PMS_P1;PMS_P2;Temp;Humidity;BMP_temperature;BMP_pressure;BME280_temperature;BME280_humidity;BME280_pressure;Samples;Min_cycle;Max_cycle;Signal;HPM_P1;HPM_P2
2024/01/28 00:03:34;;;;;;;14.30;6.20;;;;;;;5.25;100.00;102204.15;177472;1262;58294;-83
2024/01/28 00:07:37;;;;;;;16.40;7.00;;;;;;;5.17;100.00;102204.05;177922;1260;46129;-84
2024/01/28 00:11:42;;;;;;;14.20;5.70;;;;;;;5.15;100.00;102197.41;177693;1257;44447;-82
2024/01/28 00:15:48;;;;;;;19.80;6.10;;;;;;;5.14;100.00;102197.79;177974;1257;46041;-84
2024/01/28 00:19:52;;;;;;;22.90;6.90;;;;;;;5.08;100.00;102198.67;177991;1257;46019;-83
2024/01/28 00:23:56;;;;;;;19.50;6.40;;;;;;;5.11;100.00;102195.95;177958;1258;59685;-84
2024/01/28 00:27:59;;;;;;;20.00;7.50;;;;;;;5.17;100.00;102192.79;177622;1260;46108;-84
2024/01/28 00:32:02;;;;;;;16.00;7.80;;;;;;;5.19;100.00;102186.73;177634;1257;46111;-82
2024/01/28 00:36:06;;;;;;;8.80;5.00;;;;;;;5.15;100.00;102185.11;177749;1257;46121;-84
2024/01/28 00:40:09;;;;;;;15.20;5.90;;;;;;;5.02;100.00;102180.73;177615;1260;46011;-84
2024/01/28 00:44:13;;;;;;;13.60;6.40;;;;;;;4.83;100.00;102182.81;178213;1257;58302;-83
2024/01/28 00:48:16;;;;;;;14.10;6.00;;;;;;;4.74;100.00;102179.19;177831;1258;45990;-84
2024/01/28 00:52:20;;;;;;;21.00;7.40;;;;;;;4.60;100.00;102182.53;177625;1261;46115;-83
2024/01/28 00:56:24;;;;;;;13.80;6.50;;;;;;;4.54;100.00;102190.08;177788;1258;46087;-84
2024/01/28 01:00:28;;;;;;;14.00;8.40;;;;;;;4.48;100.00;102197.79;178070;1261;46006;-83
2024/01/28 01:04:31;;;;;;;13.50;7.10;;;;;;;4.47;100.00;102200.98;178172;1257;58057;-85
2024/01/28 01:08:34;;;;;;;28.30;10.30;;;;;;;4.44;100.00;102200.69;177615;1257;46063;-85
2024/01/28 01:12:38;;;;;;;11.80;7.10;;;;;;;4.45;100.00;102196.11;177498;1257;46128;-85
2024/01/28 01:16:41;;;;;;;23.20;7.90;;;;;;;4.43;100.00;102195.29;177521;1258;46135;-85
2024/01/28 01:20:44;;;;;;;21.40;6.10;;;;;;;4.40;100.00;102194.28;177797;1257;46016;-84
2024/01/28 01:24:47;;;;;;;20.30;8.30;;;;;;;4.34;100.00;102192.88;178538;1257;58229;-83
2024/01/28 01:28:50;;;;;;;17.20;6.30;;;;;;;4.28;100.00;102189.32;178933;1257;46000;-82
2024/01/28 01:32:54;;;;;;;18.70;7.60;;;;;;;4.20;100.00;102188.81;179425;1257;45926;-81
2024/01/28 01:36:57;;;;;;;25.30;8.80;;;;;;;4.15;100.00;102189.46;179912;1256;46044;-84
2024/01/28 01:41:01;;;;;;;21.60;9.10;;;;;;;4.13;100.00;102187.94;178724;1257;46046;-83
2024/01/28 01:45:05;;;;;;;14.90;6.90;;;;;;;4.00;100.00;102185.78;179142;1258;60660;-83
2024/01/28 01:49:10;;;;;;;12.20;6.20;;;;;;;3.71;100.00;102193.27;178298;1257;46116;-83
2024/01/28 01:53:14;;;;;;;16.30;5.70;;;;;;;3.58;100.00;102188.84;177982;1256;46095;-84
2024/01/28 01:57:18;;;;;;;11.70;6.30;;;;;;;3.50;100.00;102185.14;178311;1257;45964;-85
2024/01/28 02:01:22;;;;;;;18.70;7.90;;;;;;;3.41;100.00;102182.35;177928;1259;44248;-84
2024/01/28 02:05:25;;;;;;;10.60;5.60;;;;;;;3.35;100.00;102181.79;178231;1260;58276;-83
2024/01/28 02:09:29;;;;;;;22.90;6.30;;;;;;;3.20;100.00;102181.21;178087;1256;46040;-83
2024/01/28 02:13:32;;;;;;;17.00;6.90;;;;;;;3.18;100.00;102184.76;177746;1257;44673;-82
2024/01/28 02:17:36;;;;;;;11.90;5.90;;;;;;;3.16;100.00;102187.26;178447;1256;46252;-82
2024/01/28 02:21:39;;;;;;;18.80;8.70;;;;;;;3.15;100.00;102184.98;177941;1257;45997;-82
2024/01/28 02:25:42;;;;;;;20.30;7.60;;;;;;;3.14;100.00;102182.91;178583;1257;57906;-82
2024/01/28 02:29:45;;;;;;;13.40;7.30;;;;;;;3.08;100.00;102186.88;178109;1260;46328;-83
2024/01/28 02:33:48;;;;;;;17.50;8.40;;;;;;;3.03;100.00;102186.63;178166;1260;46123;-83
2024/01/28 02:37:52;;;;;;;15.80;6.60;;;;;;;3.08;100.00;102184.77;178924;1257;46125;-81
2024/01/28 02:41:55;;;;;;;16.10;6.50;;;;;;;3.07;100.00;102184.96;178728;1257;46057;-82
2024/01/28 02:45:58;;;;;;;17.20;7.10;;;;;;;2.88;100.00;102182.19;178489;1256;59537;-81
2024/01/28 02:50:02;;;;;;;21.50;6.70;;;;;;;2.62;100.00;102184.94;178568;1256;46083;-83
2024/01/28 02:54:06;;;;;;;20.10;7.10;;;;;;;2.52;100.00;102197.54;178449;1256;46028;-83
2024/01/28 02:58:09;;;;;;;11.60;5.70;;;;;;;2.50;100.00;102204.94;178098;1257;46077;-82
2024/01/28 03:02:12;;;;;;;17.10;7.00;;;;;;;2.52;100.00;102204.02;178158;1257;46578;-82
2024/01/28 03:06:16;;;;;;;13.60;6.70;;;;;;;2.60;100.00;102207.04;177999;1257;60444;-82
2024/01/28 03:10:19;;;;;;;12.40;5.50;;;;;;;2.57;100.00;102205.35;177873;1257;46283;-83
2024/01/28 03:14:22;;;;;;;20.60;6.90;;;;;;;2.47;100.00;102210.24;178303;1256;46237;-82
2024/01/28 03:18:25;;;;;;;19.20;7.30;;;;;;;2.50;100.00;102211.06;178133;1257;46003;-83
2024/01/28 03:22:28;;;;;;;16.60;7.20;;;;;;;2.53;100.00;102212.76;178642;1257;46117;-83
2024/01/28 03:26:35;;;;;;;20.40;8.30;;;;;;;2.55;100.00;102218.52;177468;1257;152444;-82
2024/01/28 03:30:38;;;;;;;8.00;5.20;;;;;;;2.63;100.00;102222.93;178835;1256;45241;-84
2024/01/28 03:34:41;;;;;;;22.10;8.00;;;;;;;2.70;100.00;102230.52;178206;1257;44451;-82
2024/01/28 03:38:44;;;;;;;11.50;7.20;;;;;;;2.80;100.00;102228.05;178503;1257;46192;-82
2024/01/28 03:42:48;;;;;;;16.40;8.90;;;;;;;2.89;100.00;102223.17;178198;1257;46172;-83
2024/01/28 03:46:54;;;;;;;17.80;6.70;;;;;;;2.91;100.00;102221.91;178319;1256;57918;-83
2024/01/28 03:50:58;;;;;;;11.90;6.10;;;;;;;2.91;100.00;102223.33;178219;1257;45984;-83
2024/01/28 03:55:01;;;;;;;15.40;5.50;;;;;;;2.89;100.00;102228.78;177778;1256;45915;-83
2024/01/28 03:59:04;;;;;;;15.40;6.50;;;;;;;2.87;100.00;102244.59;177821;1256;46727;-83
2024/01/28 04:03:08;;;;;;;11.80;5.80;;;;;;;2.84;100.00;102244.99;178683;1257;46034;-83
2024/01/28 04:07:12;;;;;;;16.10;5.90;;;;;;;2.93;100.00;102236.07;177891;1257;59234;-83
2024/01/28 04:11:15;;;;;;;16.90;8.20;;;;;;;3.01;100.00;102241.36;177445;1258;45946;-84
2024/01/28 04:15:19;;;;;;;15.90;7.40;;;;;;;3.06;100.00;102242.49;178052;1256;45960;-82
2024/01/28 04:19:22;;;;;;;19.50;6.70;;;;;;;3.11;100.00;102245.39;177696;1258;44139;-81
2024/01/28 04:23:26;;;;;;;7.90;5.40;;;;;;;3.18;100.00;102248.40;178007;1258;46060;-83
2024/01/28 04:27:29;;;;;;;20.10;7.30;;;;;;;3.24;100.00;102249.33;177923;1256;57958;-84
2024/01/28 04:31:32;;;;;;;14.40;7.10;;;;;;;3.32;100.00;102248.48;177849;1256;46221;-82
2024/01/28 04:35:35;;;;;;;13.90;7.40;;;;;;;3.33;100.00;102254.59;178281;1256;46079;-84
2024/01/28 04:39:39;;;;;;;12.40;4.40;;;;;;;3.34;100.00;102259.85;177755;1257;46051;-84
2024/01/28 04:43:42;;;;;;;21.90;6.30;;;;;;;3.31;100.00;102264.63;178068;1256;46031;-84
2024/01/28 04:47:46;;;;;;;15.10;6.70;;;;;;;3.29;100.00;102271.50;177926;1256;58269;-84
2024/01/28 04:51:50;;;;;;;12.50;5.80;;;;;;;3.35;100.00;102276.14;178836;1257;46168;-84
2024/01/28 04:55:53;;;;;;;9.80;4.70;;;;;;;3.45;100.00;102272.08;177701;1256;44437;-85
2024/01/28 04:59:56;;;;;;;7.70;4.60;;;;;;;3.53;100.00;102273.67;177652;1257;46108;-84
2024/01/28 05:04:04;;;;;;;13.80;5.30;;;;;;;3.53;100.00;102275.60;177855;1256;46095;-81
2024/01/28 05:08:08;;;;;;;13.60;4.90;;;;;;;3.59;100.00;102279.35;178262;1257;59855;-81
2024/01/28 05:12:11;;;;;;;11.40;4.60;;;;;;;3.65;100.00;102278.36;178090;1256;46052;-81
2024/01/28 05:16:14;;;;;;;12.40;5.60;;;;;;;3.64;100.00;102283.30;179299;1257;46419;-81
2024/01/28 05:20:18;;;;;;;10.00;4.50;;;;;;;3.67;100.00;102288.31;179169;1257;46060;-82
2024/01/28 05:24:21;;;;;;;15.30;5.30;;;;;;;3.73;100.00;102292.05;178944;1258;45878;-82
2024/01/28 05:28:24;;;;;;;12.10;6.40;;;;;;;3.85;100.00;102292.48;178182;1256;57931;-82
2024/01/28 05:32:28;;;;;;;11.90;6.00;;;;;;;3.92;100.00;102290.41;179029;1256;46035;-80
2024/01/28 05:36:32;;;;;;;14.90;5.90;;;;;;;3.98;100.00;102295.20;178577;1256;46105;-82
2024/01/28 05:40:35;;;;;;;18.20;5.90;;;;;;;4.12;100.00;102298.23;178000;1258;46105;-82
2024/01/28 05:44:38;;;;;;;10.10;5.30;;;;;;;4.22;100.00;102301.35;178950;1256;46025;-81
2024/01/28 05:48:41;;;;;;;12.50;5.30;;;;;;;4.20;100.00;102291.57;177898;1256;59000;-81
2024/01/28 05:52:45;;;;;;;9.50;5.10;;;;;;;4.15;100.00;102289.58;178460;1256;45948;-82
2024/01/28 05:56:48;;;;;;;12.10;6.50;;;;;;;4.14;100.00;102284.50;178117;1260;46048;-81
2024/01/28 06:00:51;;;;;;;17.20;7.30;;;;;;;4.11;100.00;102285.23;177764;1256;46552;-84
2024/01/28 06:04:54;;;;;;;15.60;5.60;;;;;;;4.10;100.00;102285.29;177799;1258;46032;-84
2024/01/28 06:08:58;;;;;;;13.70;7.30;;;;;;;4.13;100.00;102287.86;177752;1257;57820;-82
2024/01/28 06:13:01;;;;;;;11.50;6.70;;;;;;;4.17;100.00;102291.99;178194;1257;45993;-83
2024/01/28 06:17:05;;;;;;;15.00;6.40;;;;;;;4.18;100.00;102288.63;178497;1256;46012;-83
2024/01/28 06:21:08;;;;;;;15.80;9.50;;;;;;;4.20;100.00;102288.94;178380;1256;45727;-82
2024/01/28 06:25:11;;;;;;;15.70;7.60;;;;;;;4.26;100.00;102292.30;178522;1257;45997;-83
2024/01/28 06:29:14;;;;;;;17.20;7.50;;;;;;;4.27;100.00;102298.41;178360;1256;58290;-83
2024/01/28 06:33:17;;;;;;;10.10;6.40;;;;;;;4.31;100.00;102297.28;178694;1256;46090;-83
2024/01/28 06:37:21;;;;;;;9.60;6.70;;;;;;;4.36;100.00;102291.71;178697;1256;45925;-83
2024/01/28 06:41:24;;;;;;;10.00;6.80;;;;;;;4.34;100.00;102298.98;178008;1256;46456;-83
2024/01/28 06:45:27;;;;;;;12.80;6.60;;;;;;;4.36;100.00;102300.34;178243;1256;46402;-82
2024/01/28 06:49:31;;;;;;;14.90;8.60;;;;;;;4.36;100.00;102305.42;178153;1258;59459;-83
2024/01/28 06:53:34;;;;;;;11.70;6.50;;;;;;;4.47;100.00;102305.86;178321;1256;44944;-82
2024/01/28 06:57:37;;;;;;;12.10;5.60;;;;;;;4.53;100.00;102305.39;178404;1258;45993;-84
2024/01/28 07:01:41;;;;;;;18.40;8.80;;;;;;;4.47;100.00;102304.64;178296;1256;46099;-83
2024/01/28 07:05:44;;;;;;;21.00;9.20;;;;;;;4.43;100.00;102301.92;178361;1260;46633;-83
2024/01/28 07:09:47;;;;;;;20.60;11.50;;;;;;;4.50;100.00;102306.49;178728;1256;57284;-84
2024/01/28 07:13:50;;;;;;;20.10;10.10;;;;;;;4.58;100.00;102314.91;179070;1256;46118;-82
2024/01/28 07:17:54;;;;;;;24.50;14.10;;;;;;;4.60;100.00;102318.20;179795;1256;44045;-82
2024/01/28 07:21:57;;;;;;;27.30;12.20;;;;;;;4.64;100.00;102314.77;178655;1256;46131;-83
2024/01/28 07:26:00;;;;;;;17.60;9.90;;;;;;;4.57;100.00;102311.25;178780;1256;46379;-84
2024/01/28 07:30:03;;;;;;;38.50;17.90;;;;;;;4.64;100.00;102315.98;179191;1257;59070;-83
2024/01/28 07:34:06;;;;;;;34.80;19.90;;;;;;;4.75;100.00;102312.57;180460;1256;46332;-83
2024/01/28 07:38:10;;;;;;;18.00;9.70;;;;;;;4.89;100.00;102310.48;179244;1257;46417;-83
2024/01/28 07:42:13;;;;;;;20.20;9.80;;;;;;;5.00;100.00;102307.38;178262;1257;46016;-83
2024/01/28 07:46:18;;;;;;;23.80;12.40;;;;;;;4.99;100.00;102310.74;178512;1256;45828;-84
2024/01/28 07:50:21;;;;;;;20.80;11.50;;;;;;;5.02;100.00;102322.45;178706;1259;58866;-82
2024/01/28 07:54:24;;;;;;;13.10;5.30;;;;;;;5.14;100.00;102331.12;178199;1257;46131;-83
2024/01/28 07:58:27;;;;;;;21.70;7.00;;;;;;;5.22;100.00;102335.64;178324;1256;44432;-84
2024/01/28 08:02:31;;;;;;;41.00;24.60;;;;;;;5.34;100.00;102328.48;178295;1257;46256;-83
2024/01/28 08:06:34;;;;;;;27.90;16.10;;;;;;;5.49;100.00;102323.68;178244;1256;46109;-83
2024/01/28 08:10:37;;;;;;;21.00;11.40;;;;;;;5.56;100.00;102327.69;177944;1258;57929;-83
2024/01/28 08:14:41;;;;;;;22.90;9.20;;;;;;;5.50;100.00;102333.51;177476;1256;46217;-83
2024/01/28 08:18:45;;;;;;;21.50;9.00;;;;;;;5.56;100.00;102336.16;178250;1256;45981;-83
2024/01/28 08:22:50;;;;;;;15.70;7.90;;;;;;;5.54;100.00;102337.09;177820;1257;46221;-82
2024/01/28 08:26:53;;;;;;;32.60;19.80;;;;;;;5.50;100.00;102344.40;177953;1257;46115;-83
2024/01/28 08:30:56;;;;;;;16.10;11.20;;;;;;;5.59;100.00;102343.98;177658;1256;57905;-83
2024/01/28 08:35:00;;;;;;;19.60;9.30;;;;;;;5.72;100.00;102346.80;177899;1256;45131;-83
2024/01/28 08:39:05;;;;;;;30.70;8.80;;;;;;;5.83;100.00;102349.14;177602;1260;46176;-82
2024/01/28 08:43:08;;;;;;;15.20;7.00;;;;;;;5.85;100.00;102344.83;178199;1257;46042;-83
2024/01/28 08:47:12;;;;;;;97.40;50.70;;;;;;;5.88;100.00;102338.58;179033;1257;45997;-83
2024/01/28 08:51:15;;;;;;;66.80;33.60;;;;;;;6.04;100.00;102340.77;177704;1257;59534;-82
2024/01/28 08:55:18;;;;;;;60.10;28.10;;;;;;;6.23;100.00;102337.61;178259;1256;46217;-83
2024/01/28 08:59:21;;;;;;;67.60;33.40;;;;;;;6.43;99.70;102336.64;178223;1256;45908;-83
2024/01/28 09:03:24;;;;;;;24.50;13.70;;;;;;;6.61;99.83;102337.66;178671;1258;46045;-83
2024/01/28 09:07:28;;;;;;;22.50;12.20;;;;;;;6.76;98.10;102334.71;178079;1256;45862;-82
2024/01/28 09:11:31;;;;;;;31.90;14.10;;;;;;;6.91;98.53;102337.73;178823;1256;59377;-83
2024/01/28 09:15:34;;;;;;;29.40;15.10;;;;;;;7.13;97.23;102341.05;179227;1257;44261;-83
2024/01/28 09:19:37;;;;;;;33.90;12.70;;;;;;;7.29;95.41;102344.73;177633;1256;46146;-84
2024/01/28 09:23:41;;;;;;;15.40;8.20;;;;;;;7.33;92.72;102342.85;178775;1255;46218;-83
2024/01/28 09:27:48;;;;;;;15.80;7.50;;;;;;;7.38;94.14;102346.90;178061;1258;45999;-83
2024/01/28 09:31:52;;;;;;;19.40;8.80;;;;;;;7.50;93.93;102352.81;178647;1257;59793;-83
2024/01/28 09:35:55;;;;;;;17.50;10.20;;;;;;;7.60;92.36;102352.66;178109;1257;46039;-83
2024/01/28 09:39:58;;;;;;;55.30;25.50;;;;;;;7.74;93.61;102356.55;178741;1256;46019;-83
2024/01/28 09:44:03;;;;;;;36.80;18.10;;;;;;;7.89;92.45;102358.33;177727;1256;46005;-82
2024/01/28 09:48:07;;;;;;;18.20;11.40;;;;;;;8.03;92.04;102351.61;178293;1256;46395;-83
2024/01/28 09:52:11;;;;;;;24.70;14.50;;;;;;;8.10;90.33;102349.39;178124;1256;58223;-83
2024/01/28 09:56:16;;;;;;;42.30;22.90;;;;;;;8.11;90.44;102351.65;178298;1259;46118;-83
2024/01/28 10:00:20;;;;;;;25.60;12.00;;;;;;;8.10;90.23;102350.46;178641;1256;46032;-83
2024/01/28 10:04:24;;;;;;;19.30;9.80;;;;;;;8.01;88.12;102350.81;178861;1256;46023;-83
2024/01/28 10:08:27;;;;;;;14.10;9.00;;;;;;;7.96;87.64;102349.58;178285;1256;45991;-84
2024/01/28 10:12:31;;;;;;;20.40;10.40;;;;;;;7.91;88.89;102357.72;179069;1257;58359;-83
2024/01/28 10:16:34;;;;;;;20.20;8.20;;;;;;;7.99;89.07;102357.95;178727;1256;46228;-84
2024/01/28 10:20:37;;;;;;;18.60;9.70;;;;;;;8.03;89.18;102348.77;178306;1256;46114;-83
2024/01/28 10:24:44;;;;;;;18.70;8.80;;;;;;;8.14;89.89;102345.01;178379;1256;46221;-84
2024/01/28 10:28:48;;;;;;;20.00;10.70;;;;;;;8.23;88.75;102338.13;178528;1256;46114;-84
2024/01/28 10:32:52;;;;;;;20.80;9.30;;;;;;;8.32;88.57;102337.58;178334;1256;59461;-83
2024/01/28 10:36:56;;;;;;;18.50;9.30;;;;;;;8.33;87.79;102339.17;178304;1257;46128;-84
2024/01/28 10:41:00;;;;;;;11.60;8.50;;;;;;;8.43;88.01;102333.08;178380;1256;46113;-84
2024/01/28 10:45:10;;;;;;;14.80;8.50;;;;;;;8.48;86.85;102327.26;178387;1256;46153;-84
2024/01/28 10:49:24;;;;;;;21.20;8.00;;;;;;;8.61;86.59;102335.77;178231;1257;45921;-84
2024/01/28 10:53:29;;;;;;;14.30;7.30;;;;;;;8.61;85.03;102330.45;177613;1256;58233;-84
2024/01/28 10:57:32;;;;;;;15.70;7.60;;;;;;;8.64;85.87;102324.52;178498;1256;46109;-83
2024/01/28 11:01:37;;;;;;;14.60;8.00;;;;;;;8.68;85.46;102328.94;178447;1256;45980;-83
2024/01/28 11:05:41;;;;;;;19.10;8.40;;;;;;;8.55;84.60;102328.23;178204;1256;46217;-83
2024/01/28 11:09:44;;;;;;;20.90;9.10;;;;;;;8.50;83.20;102323.49;178167;1256;45987;-83
2024/01/28 11:13:48;;;;;;;18.90;10.00;;;;;;;8.52;84.06;102321.25;178009;1256;57931;-84
2024/01/28 11:17:51;;;;;;;34.10;16.10;;;;;;;8.66;83.94;102311.15;177676;1257;46011;-83
2024/01/28 11:21:58;;;;;;;32.50;9.30;;;;;;;8.77;83.45;102306.83;177837;1256;44394;-83
2024/01/28 11:26:02;;;;;;;27.40;8.80;;;;;;;8.83;83.60;102298.42;177566;1260;45710;-84
2024/01/28 11:30:10;;;;;;;17.10;6.40;;;;;;;8.86;82.77;102292.98;178208;1256;46063;-83
2024/01/28 11:34:19;;;;;;;15.20;6.90;;;;;;;8.80;81.61;102286.70;177561;1256;57474;-84
2024/01/28 11:38:28;;;;;;;7.90;5.70;;;;;;;8.80;81.45;102286.86;178265;1256;46011;-84
2024/01/28 11:42:31;;;;;;;6.80;3.30;;;;;;;8.84;80.88;102280.50;178258;1258;45963;-84
2024/01/28 11:46:39;;;;;;;6.50;3.50;;;;;;;8.83;77.84;102270.99;178377;1256;46216;-84
2024/01/28 11:50:43;;;;;;;13.50;3.60;;;;;;;8.86;77.54;102270.34;178070;1259;46003;-84
2024/01/28 11:54:47;;;;;;;10.10;4.50;;;;;;;8.85;76.58;102260.48;178181;1256;57931;-84
2024/01/28 11:58:51;;;;;;;10.70;3.60;;;;;;;8.88;77.44;102250.09;177865;1259;45152;-83
2024/01/28 12:02:54;;;;;;;7.50;3.10;;;;;;;8.94;76.56;102244.70;177982;1259;45966;-84
2024/01/28 12:06:57;;;;;;;6.00;3.30;;;;;;;8.93;75.24;102236.05;177680;1256;46044;-84
2024/01/28 12:11:03;;;;;;;4.00;3.10;;;;;;;8.90;75.71;102232.32;178344;1260;45997;-84
2024/01/28 12:15:08;;;;;;;5.10;2.60;;;;;;;8.93;76.46;102231.85;177852;1257;59233;-83
2024/01/28 12:19:13;;;;;;;8.40;4.00;;;;;;;8.89;75.85;102229.89;178004;1260;44653;-84
2024/01/28 12:23:21;;;;;;;6.60;3.10;;;;;;;8.93;75.44;102229.54;177829;1256;46451;-83
2024/01/28 12:27:24;;;;;;;12.80;3.50;;;;;;;9.02;74.73;102228.08;178161;1256;46015;-82
2024/01/28 12:31:28;;;;;;;18.80;6.50;;;;;;;8.98;75.41;102220.63;177766;1259;46105;-82
2024/01/28 12:35:32;;;;;;;21.00;9.30;;;;;;;8.90;75.34;102212.50;178340;1257;59622;-82
2024/01/28 12:39:35;;;;;;;14.10;7.00;;;;;;;8.88;74.67;102206.91;177789;1259;46271;-84
2024/01/28 12:43:40;;;;;;;40.10;21.10;;;;;;;8.85;74.28;102202.96;178554;1256;44244;-84
2024/01/28 12:47:43;;;;;;;9.80;5.20;;;;;;;8.84;75.39;102204.44;177851;1260;46218;-85
2024/01/28 12:51:46;;;;;;;9.00;5.30;;;;;;;8.67;75.39;102205.52;177894;1256;45980;-84
2024/01/28 12:55:50;;;;;;;16.80;11.20;;;;;;;8.62;75.67;102206.27;178166;1256;59296;-84
2024/01/28 12:59:53;;;;;;;12.10;5.20;;;;;;;8.65;76.37;102200.99;177710;1256;45937;-83
2024/01/28 13:03:57;;;;;;;12.20;6.30;;;;;;;8.72;75.41;102197.02;177771;1256;46080;-84
2024/01/28 13:08:00;;;;;;;14.10;7.40;;;;;;;8.70;76.50;102196.89;178363;1256;45953;-84
2024/01/28 13:12:04;;;;;;;13.90;6.90;;;;;;;8.75;75.99;102203.27;177811;1260;46135;-83
2024/01/28 13:16:07;;;;;;;13.80;6.60;;;;;;;8.62;75.24;102204.16;178655;1256;59548;-83
2024/01/28 13:20:13;;;;;;;17.30;5.60;;;;;;;8.62;74.52;102201.30;177746;1260;45979;-83
2024/01/28 13:24:17;;;;;;;;;;;;;;;8.66;74.97;102197.63;178009;1262;46188;-87
2024/01/28 13:28:20;;;;;;;15.00;7.80;;;;;;;8.66;75.88;102193.88;177748;1258;45777;-86
2024/01/28 13:32:24;;;;;;;11.90;6.40;;;;;;;8.79;76.23;102185.39;178263;1256;46115;-85
2024/01/28 13:36:28;;;;;;;27.80;14.30;;;;;;;8.89;75.03;102171.14;178955;1257;59199;-86
2024/01/28 13:40:31;;;;;;;15.00;7.90;;;;;;;8.94;76.05;102162.40;178405;1257;46188;-85
2024/01/28 13:44:35;;;;;;;19.20;8.50;;;;;;;8.94;77.11;102156.60;178437;1257;46045;-86
2024/01/28 13:48:38;;;;;;;21.70;10.30;;;;;;;8.85;76.90;102151.67;179239;1256;45143;-85
2024/01/28 13:52:42;;;;;;;27.00;12.30;;;;;;;8.93;76.88;102154.84;178105;1256;45986;-84
2024/01/28 13:56:46;;;;;;;19.80;6.90;;;;;;;9.00;76.97;102160.20;177912;1258;58211;-86
2024/01/28 14:00:49;;;;;;;8.00;5.80;;;;;;;9.05;76.65;102165.46;178347;1257;46007;-87
2024/01/28 14:04:53;;;;;;;21.50;10.20;;;;;;;9.00;78.81;102164.98;178017;1260;45984;-87
2024/01/28 14:08:56;;;;;;;15.90;10.20;;;;;;;8.95;79.26;102165.75;178503;1256;46000;-85
2024/01/28 14:12:59;;;;;;;8.00;4.50;;;;;;;8.97;79.72;102169.39;178323;1257;45982;-86
2024/01/28 14:17:03;;;;;;;10.10;5.00;;;;;;;9.01;79.50;102184.94;178402;1257;59538;-86
2024/01/28 14:21:07;;;;;;;7.20;5.00;;;;;;;9.02;78.17;102200.30;178967;1256;45992;-86
2024/01/28 14:25:10;;;;;;;11.50;4.90;;;;;;;9.02;79.25;102192.66;178359;1256;46074;-86
2024/01/28 14:29:14;;;;;;;11.60;5.20;;;;;;;9.01;80.46;102183.35;178605;1260;46028;-85
2024/01/28 14:33:17;;;;;;;11.70;5.90;;;;;;;8.95;81.32;102171.05;178432;1256;46076;-84
2024/01/28 14:37:21;;;;;;;14.10;5.50;;;;;;;8.87;81.43;102154.77;177844;1256;57918;-84
2024/01/28 14:41:24;;;;;;;7.10;4.40;;;;;;;8.80;82.29;102148.02;178354;1260;46129;-86
2024/01/28 14:45:28;;;;;;;17.50;6.10;;;;;;;8.74;83.11;102152.19;178023;1257;45940;-84
2024/01/28 14:49:32;;;;;;;19.20;5.60;;;;;;;8.67;83.22;102150.52;178041;1256;46116;-86
2024/01/28 14:53:38;;;;;;;8.60;5.20;;;;;;;8.62;82.83;102154.82;178422;1258;46101;-86
2024/01/28 14:57:42;;;;;;;9.40;5.50;;;;;;;8.54;82.59;102164.70;178682;1256;58202;-85
2024/01/28 15:01:45;;;;;;;9.30;4.60;;;;;;;8.46;82.65;102170.50;178391;1256;46226;-86
2024/01/28 15:05:49;;;;;;;7.80;4.30;;;;;;;8.34;83.24;102172.41;178707;1255;46121;-85
2024/01/28 15:09:54;;;;;;;7.20;4.20;;;;;;;8.13;84.49;102170.43;178014;1256;44082;-85
2024/01/28 15:13:58;;;;;;;14.30;5.60;;;;;;;7.98;85.66;102179.19;178523;1256;46242;-85
2024/01/28 15:18:02;;;;;;;9.20;4.00;;;;;;;7.85;86.50;102182.52;177962;1257;59809;-85
2024/01/28 15:22:06;;;;;;;30.50;17.80;;;;;;;7.72;87.00;102183.55;178014;1256;46109;-85
2024/01/28 15:26:09;;;;;;;24.00;7.00;;;;;;;7.63;87.24;102183.92;178001;1257;175345;-85
2024/01/28 15:30:13;;;;;;;13.90;6.60;;;;;;;7.54;87.59;102183.56;177642;1257;46017;-86
2024/01/28 15:34:16;;;;;;;14.00;6.50;;;;;;;7.44;87.73;102186.04;178228;1260;44171;-87
2024/01/28 15:38:20;;;;;;;16.90;8.00;;;;;;;7.29;88.25;102189.77;178095;1256;58290;-87
2024/01/28 15:42:23;;;;;;;17.40;8.90;;;;;;;7.16;88.88;102180.91;177991;1261;46171;-86
2024/01/28 15:46:27;;;;;;;18.70;11.80;;;;;;;6.97;89.70;102177.88;178917;1255;45228;-87
2024/01/28 15:50:30;;;;;;;13.70;10.50;;;;;;;6.76;90.80;102179.86;178549;1258;45963;-86
2024/01/28 15:54:33;;;;;;;29.30;10.40;;;;;;;6.63;91.28;102185.98;177988;1257;44143;-86
2024/01/28 15:58:37;;;;;;;15.50;10.40;;;;;;;6.41;93.14;102183.36;178450;1258;58338;-85
2024/01/28 16:02:40;;;;;;;42.60;27.20;;;;;;;6.15;95.29;102184.92;178376;1256;46120;-87
2024/01/28 16:06:44;;;;;;;50.00;31.30;;;;;;;5.89;98.00;102188.02;178549;1256;45976;-86
2024/01/28 16:10:47;;;;;;;34.90;18.20;;;;;;;5.69;99.77;102189.66;177547;1257;45776;-87
2024/01/28 16:14:51;;;;;;;31.70;17.30;;;;;;;5.55;100.00;102191.52;178851;1258;46140;-89
2024/01/28 16:18:54;;;;;;;24.20;13.60;;;;;;;5.45;100.00;102191.79;179113;1256;59272;-87
2024/01/28 16:22:58;;;;;;;28.80;13.40;;;;;;;5.35;100.00;102183.63;179782;1257;45875;-87
2024/01/28 16:27:02;;;;;;;29.10;13.20;;;;;;;5.14;100.00;102186.00;178824;1258;46226;-87
2024/01/28 16:31:06;;;;;;;27.70;13.70;;;;;;;4.99;100.00;102186.60;178105;1257;46102;-87
2024/01/28 16:35:09;;;;;;;28.10;14.30;;;;;;;4.83;100.00;102186.15;179614;1257;46115;-88
2024/01/28 16:39:13;;;;;;;31.30;11.20;;;;;;;4.80;100.00;102189.91;179152;1257;58533;-86
2024/01/28 16:43:16;;;;;;;19.70;12.80;;;;;;;4.79;100.00;102191.02;178643;1256;44351;-87
2024/01/28 16:47:19;;;;;;;19.00;12.00;;;;;;;4.81;100.00;102181.30;178318;1260;44956;-87
2024/01/28 16:51:23;;;;;;;23.10;13.20;;;;;;;4.68;100.00;102182.66;179621;1256;46106;-89
2024/01/28 16:55:30;;;;;;;33.80;19.20;;;;;;;4.43;100.00;102180.35;179008;1256;44031;-88
2024/01/28 16:59:33;;;;;;;38.00;27.40;;;;;;;4.28;100.00;102178.08;179541;1258;59523;-86
2024/01/28 17:03:37;;;;;;;153.20;57.40;;;;;;;4.18;100.00;102182.03;179082;1256;46095;-86
2024/01/28 17:07:40;;;;;;;65.50;32.40;;;;;;;4.16;100.00;102183.66;178742;1260;46095;-87
2024/01/28 17:11:44;;;;;;;66.90;33.20;;;;;;;4.11;100.00;102187.80;178485;1260;46121;-85
2024/01/28 17:15:47;;;;;;;49.70;26.70;;;;;;;4.13;100.00;102193.36;178154;1259;46436;-86
2024/01/28 17:19:50;;;;;;;49.50;24.00;;;;;;;4.12;100.00;102196.92;178413;1256;57912;-85
2024/01/28 17:23:54;;;;;;;55.00;23.20;;;;;;;4.09;100.00;102199.09;178493;1256;46048;-86
2024/01/28 17:27:58;;;;;;;48.50;25.20;;;;;;;4.03;100.00;102193.96;179214;1257;46270;-82
2024/01/28 17:32:04;;;;;;;43.70;23.60;;;;;;;3.87;100.00;102183.63;179587;1257;46075;-84
2024/01/28 17:36:07;;;;;;;43.50;26.00;;;;;;;3.62;100.00;102177.88;179135;1256;46103;-84
2024/01/28 17:40:11;;;;;;;36.40;25.70;;;;;;;3.51;100.00;102169.31;178437;1257;58389;-83
2024/01/28 17:44:15;;;;;;;44.10;26.90;;;;;;;3.44;100.00;102167.73;178534;1260;46063;-84
2024/01/28 17:48:19;;;;;;;72.60;42.70;;;;;;;3.44;100.00;102165.46;178772;1258;46061;-85
2024/01/28 17:52:24;;;;;;;68.10;42.40;;;;;;;3.48;100.00;102164.50;178392;1258;45955;-83
2024/01/28 17:56:28;;;;;;;46.80;28.60;;;;;;;3.51;100.00;102166.55;178247;1262;46074;-82
2024/01/28 18:00:32;;;;;;;45.40;28.20;;;;;;;3.53;100.00;102177.52;179420;1259;57927;-85
2024/01/28 18:04:36;;;;;;;49.60;28.30;;;;;;;3.52;100.00;102179.83;179452;1260;46064;-84
2024/01/28 18:08:40;;;;;;;48.60;29.30;;;;;;;3.49;100.00;102180.25;178724;1259;46092;-82
2024/01/28 18:12:44;;;;;;;54.30;35.30;;;;;;;3.40;100.00;102173.27;179264;1256;46102;-86
2024/01/28 18:16:48;;;;;;;44.80;26.70;;;;;;;3.34;99.98;102176.19;178069;1257;46066;-86
2024/01/28 18:20:51;;;;;;;45.70;30.10;;;;;;;3.26;100.00;102176.16;178469;1258;59482;-85
2024/01/28 18:24:54;;;;;;;45.20;26.20;;;;;;;3.26;100.00;102176.88;178030;1258;46045;-85
2024/01/28 18:28:58;;;;;;;58.80;27.90;;;;;;;3.25;100.00;102178.30;178148;1263;46042;-84
2024/01/28 18:33:02;;;;;;;44.80;22.00;;;;;;;3.24;99.99;102185.33;178939;1257;44039;-82